createdAt,value
2019-03-24T00:00:51.871Z,8.77
2019-03-24T00:05:52.072Z,8.73
2019-03-24T00:10:51.880Z,8.69
2019-03-24T00:15:52.185Z,8.65
2019-03-24T00:20:51.898Z,8.60
2019-03-24T00:25:51.259Z,8.59
2019-03-24T00:30:50.961Z,8.51
2019-03-24T00:35:50.967Z,8.49
2019-03-24T00:40:49.915Z,8.48
2019-03-24T00:45:49.857Z,8.44
2019-03-24T00:50:50.062Z,8.42
2019-03-24T00:55:49.859Z,8.40
2019-03-24T01:00:49.867Z,8.38
2019-03-24T01:05:50.877Z,8.36
2019-03-24T01:10:50.496Z,8.33
2019-03-24T01:15:49.330Z,8.29
2019-03-24T01:20:49.052Z,8.29
2019-03-24T01:25:48.872Z,8.25
2019-03-24T01:30:48.942Z,8.21
2019-03-24T01:35:48.966Z,8.15
2019-03-24T01:40:49.168Z,8.12
2019-03-24T01:45:58.132Z,8.05
2019-03-24T01:50:49.149Z,8.01
2019-03-24T01:55:47.859Z,7.99
2019-03-24T02:00:47.891Z,7.95
2019-03-24T02:05:46.898Z,7.90
2019-03-24T02:10:46.905Z,7.85
2019-03-24T02:15:45.883Z,7.82
2019-03-24T02:20:45.197Z,7.79
2019-03-24T02:25:46.131Z,7.75
2019-03-24T02:30:45.087Z,7.71
2019-03-24T02:35:43.918Z,7.67
2019-03-24T02:40:43.942Z,7.64
2019-03-24T02:45:45.110Z,7.60
2019-03-24T02:50:44.929Z,7.57
2019-03-24T02:55:44.938Z,7.54
2019-03-24T03:00:44.987Z,7.49
2019-03-24T03:05:44.928Z,7.45
2019-03-24T03:10:43.909Z,7.45
2019-03-24T03:15:43.903Z,7.38
2019-03-24T03:20:45.142Z,7.34
2019-03-24T03:25:46.102Z,7.30
2019-03-24T03:30:46.953Z,7.27
2019-03-24T03:35:46.389Z,7.18
2019-03-24T03:40:46.231Z,7.11
2019-03-24T03:45:45.885Z,7.09
2019-03-24T03:50:45.968Z,7.05
2019-03-24T03:55:47.132Z,7.02
2019-03-24T04:00:47.955Z,7.00
2019-03-24T04:05:48.009Z,6.95
2019-03-24T04:10:47.907Z,6.92
2019-03-24T04:26:30.852Z,6.92
2019-03-24T04:35:45.949Z,6.72
2019-03-24T04:40:46.169Z,6.66
2019-03-24T04:45:45.961Z,6.63
2019-03-24T04:50:47.116Z,6.60
2019-03-24T04:55:46.980Z,6.57
2019-03-24T05:00:46.921Z,6.56
2019-03-24T05:05:46.579Z,6.52
2019-03-24T05:10:46.092Z,6.52
2019-03-24T05:15:45.156Z,6.52
2019-03-24T05:20:45.211Z,6.49
2019-03-24T05:25:43.948Z,6.45
2019-03-24T05:30:44.159Z,6.40
2019-03-24T05:35:43.125Z,6.36
2019-03-24T05:40:43.162Z,6.34
2019-03-24T05:45:43.103Z,6.30
2019-03-24T05:50:42.998Z,6.27
2019-03-24T05:55:42.094Z,6.25
2019-03-24T06:05:41.925Z,6.25
2019-03-24T06:10:41.170Z,6.24
2019-03-24T06:15:40.962Z,6.22
2019-03-24T06:20:40.223Z,6.22
2019-03-24T06:25:40.010Z,6.21
2019-03-24T06:30:38.936Z,6.18
2019-03-24T06:35:38.980Z,6.13
2019-03-24T06:40:38.990Z,6.15
2019-03-24T06:45:39.165Z,6.13
2019-03-24T06:50:39.990Z,6.12
2019-03-24T06:55:40.230Z,6.04
2019-03-24T07:00:38.953Z,6.00
2019-03-24T07:05:38.967Z,5.98
2019-03-24T07:10:38.983Z,5.96
2019-03-24T07:15:38.157Z,5.95
2019-03-24T07:20:37.076Z,6.01
2019-03-24T07:25:37.173Z,6.07
2019-03-24T07:30:36.317Z,6.23
2019-03-24T07:35:35.325Z,6.37
2019-03-24T07:40:34.093Z,6.48
2019-03-24T07:45:33.180Z,6.55
2019-03-24T07:50:33.085Z,6.73
2019-03-24T07:55:33.087Z,6.85
2019-03-24T08:00:31.972Z,6.95
2019-03-24T08:05:31.001Z,7.11
2019-03-24T08:10:31.030Z,7.24
2019-03-24T08:15:30.048Z,7.44
2019-03-24T08:20:30.050Z,7.51
2019-03-24T08:25:30.184Z,7.70
2019-03-24T08:30:30.041Z,7.80
2019-03-24T08:35:29.411Z,7.94
2019-03-24T08:40:29.006Z,8.07
2019-03-24T08:45:29.021Z,8.32
2019-03-24T08:50:29.031Z,8.70
2019-03-24T08:55:29.272Z,8.92
2019-03-24T09:00:30.941Z,9.03
2019-03-24T09:05:29.230Z,9.11
2019-03-24T09:10:29.273Z,9.27
2019-03-24T09:15:29.018Z,9.42
2019-03-24T09:20:29.022Z,9.50
2019-03-24T09:25:28.034Z,9.58
2019-03-24T09:30:28.028Z,9.68
2019-03-24T09:35:28.051Z,9.72
2019-03-24T09:40:27.063Z,9.84
2019-03-24T09:45:27.004Z,9.86
2019-03-24T09:50:27.109Z,9.79
2019-03-24T09:55:27.042Z,9.86
2019-03-24T10:00:26.490Z,9.99
2019-03-24T10:05:26.160Z,10.11
2019-03-24T10:10:26.005Z,10.24
2019-03-24T10:15:25.082Z,10.38
2019-03-24T10:20:24.067Z,10.45
2019-03-24T10:25:23.074Z,10.31
2019-03-24T10:30:22.022Z,10.46
2019-03-24T10:35:23.090Z,10.62
2019-03-24T10:40:28.706Z,10.72
2019-03-24T10:45:22.092Z,10.87
2019-03-24T10:50:22.087Z,10.79
2019-03-24T10:55:21.123Z,10.66
2019-03-24T11:00:21.050Z,10.82
2019-03-24T11:10:20.102Z,11.15
2019-03-24T11:15:20.069Z,11.39
2019-03-24T11:20:20.045Z,11.58
2019-03-24T11:25:20.023Z,11.66
2019-03-24T11:30:21.079Z,11.88
2019-03-24T11:35:21.048Z,11.88
2019-03-24T11:40:20.102Z,11.81
2019-03-24T11:45:19.995Z,12.06
2019-03-24T11:50:20.047Z,12.29
2019-03-24T11:55:19.038Z,12.31
2019-03-24T12:00:18.425Z,12.25
2019-03-24T12:05:18.013Z,12.22
2019-03-24T12:10:18.125Z,12.07
2019-03-24T12:15:17.998Z,11.89
2019-03-24T12:20:18.012Z,11.94
2019-03-24T12:25:19.028Z,12.03
2019-03-24T12:30:19.062Z,11.87
2019-03-24T12:35:19.122Z,11.81
2019-03-24T12:40:18.123Z,11.96
2019-03-24T12:45:17.008Z,12.12
2019-03-24T12:50:17.017Z,12.15
2019-03-24T12:55:16.059Z,12.49
2019-03-24T13:05:16.051Z,12.66
2019-03-24T13:10:16.042Z,12.50
2019-03-24T13:15:16.034Z,12.49
2019-03-24T13:20:26.732Z,12.57
2019-03-24T13:25:15.040Z,12.60
2019-03-24T13:30:15.020Z,12.39
2019-03-24T13:35:15.075Z,12.09
2019-03-24T13:40:16.029Z,11.99
2019-03-24T13:50:17.003Z,11.90
2019-03-24T13:55:15.991Z,11.85
2019-03-24T14:00:15.116Z,11.72
2019-03-24T14:05:16.051Z,11.73
2019-03-24T14:15:15.102Z,11.78
2019-03-24T14:20:15.112Z,11.81
2019-03-24T14:25:15.075Z,11.80
2019-03-24T14:30:15.163Z,11.83
2019-03-24T14:35:15.081Z,11.87
2019-03-24T14:45:15.097Z,11.67
2019-03-24T14:50:15.027Z,11.65
2019-03-24T14:55:14.029Z,11.68
2019-03-24T15:00:13.064Z,11.67
2019-03-24T15:05:12.101Z,11.61
2019-03-24T15:10:11.382Z,11.54
2019-03-24T15:15:10.326Z,11.57
2019-03-24T15:20:09.092Z,11.67
2019-03-24T15:25:09.030Z,11.65
2019-03-24T15:30:08.039Z,11.62
2019-03-24T15:35:08.064Z,11.56
2019-03-24T15:40:09.039Z,11.69
2019-03-24T15:45:09.105Z,11.63
2019-03-24T15:50:09.035Z,11.61
2019-03-24T15:55:09.019Z,11.74
2019-03-24T16:00:09.093Z,11.73
2019-03-24T16:05:11.095Z,11.78
2019-03-24T16:10:10.024Z,11.78
2019-03-24T16:15:09.065Z,11.62
2019-03-24T16:20:08.332Z,11.59
2019-03-24T16:25:09.312Z,11.57
2019-03-24T16:30:09.040Z,11.52
2019-03-24T16:35:08.042Z,11.40
2019-03-24T16:40:07.049Z,11.28
2019-03-24T16:45:07.121Z,11.11
2019-03-24T16:50:07.210Z,10.96
2019-03-24T16:55:06.055Z,10.79
2019-03-24T17:00:06.083Z,10.61
2019-03-24T17:05:05.757Z,10.40
2019-03-24T17:10:04.233Z,10.26
2019-03-24T17:15:05.084Z,10.10
2019-03-24T17:25:04.294Z,9.93
2019-03-24T17:30:03.120Z,9.80
2019-03-24T17:35:02.668Z,9.66
2019-03-24T17:40:02.038Z,9.51
2019-03-24T17:45:02.320Z,9.36
2019-03-24T17:50:02.164Z,9.21
2019-03-24T17:55:02.069Z,9.05
2019-03-24T18:00:02.059Z,8.92
2019-03-24T18:05:01.104Z,8.70
2019-03-24T18:10:00.101Z,8.55
2019-03-24T18:14:59.045Z,8.43
2019-03-24T18:19:59.237Z,8.20
2019-03-24T18:24:59.093Z,8.01
2019-03-24T18:29:58.335Z,7.86
2019-03-24T18:34:58.083Z,7.64
2019-03-24T18:39:57.054Z,7.36
2019-03-24T18:44:56.056Z,7.15
2019-03-24T18:54:58.087Z,6.93
2019-03-24T18:59:58.298Z,6.97
2019-03-24T19:04:58.135Z,7.05
2019-03-24T19:09:57.260Z,7.00
2019-03-24T19:14:56.033Z,7.00
2019-03-24T19:19:57.126Z,6.95
2019-03-24T19:24:57.094Z,6.90
2019-03-24T19:29:58.104Z,6.96
2019-03-24T19:34:58.059Z,6.95
2019-03-24T19:39:59.132Z,6.92
2019-03-24T19:44:59.225Z,6.91
2019-03-24T19:49:58.203Z,6.90
2019-03-24T19:54:57.090Z,6.86
2019-03-24T19:59:56.602Z,6.79
2019-03-24T20:04:57.172Z,6.79
2019-03-24T20:09:57.138Z,6.81
2019-03-24T20:14:57.108Z,6.85
2019-03-24T20:19:57.114Z,6.85
2019-03-24T20:24:58.058Z,6.80
2019-03-24T20:29:58.382Z,6.73
2019-03-24T20:34:58.063Z,6.69
2019-03-24T20:39:58.219Z,6.67
2019-03-24T20:44:58.280Z,6.66
2019-03-24T20:49:58.126Z,6.72
2019-03-24T20:54:59.152Z,6.78
2019-03-24T20:59:58.290Z,6.79
2019-03-24T21:04:57.575Z,6.77
2019-03-24T21:09:56.209Z,6.73
2019-03-24T21:19:55.316Z,6.53
2019-03-24T21:24:55.078Z,6.47
2019-03-24T21:29:54.082Z,6.39
2019-03-24T21:34:54.134Z,6.31
2019-03-24T21:39:54.170Z,6.27
2019-03-24T21:44:53.112Z,6.16
2019-03-24T21:49:52.527Z,6.08
2019-03-24T21:54:52.146Z,6.01
2019-03-24T21:59:51.199Z,5.90
2019-03-24T22:04:51.247Z,5.85
2019-03-24T22:09:51.798Z,5.83
2019-03-24T22:14:50.776Z,5.81
2019-03-24T22:19:50.819Z,5.73
2019-03-24T22:24:50.771Z,5.66
2019-03-24T22:29:50.979Z,5.59
2019-03-24T22:34:50.823Z,5.53
2019-03-24T22:39:50.080Z,5.46
2019-03-24T22:44:50.832Z,5.42
2019-03-24T22:49:49.810Z,5.34
2019-03-24T22:54:50.815Z,5.27
2019-03-24T22:59:49.850Z,5.18
2019-03-24T23:09:51.854Z,5.06
2019-03-24T23:14:50.834Z,5.17
2019-03-24T23:19:50.793Z,5.29
2019-03-24T23:24:49.898Z,5.37
2019-03-24T23:29:48.886Z,5.35
2019-03-24T23:34:48.850Z,5.30
2019-03-24T23:39:47.824Z,5.26
2019-03-24T23:44:46.785Z,5.24
2019-03-24T23:49:46.831Z,5.24
2019-03-24T23:54:47.927Z,5.24
2019-03-24T23:59:47.134Z,5.18
